Rachel Hailey — WDI3553 — position and weather

sailwx.info

Track history (hours):
 
Tides and Currents Weather Stations Pressure Air Temp Water Temp Dewpoint Dewpoint Depression Visibility Wind Speed Wind Dir Waves Ship Positions

Rachel Hailey

Owner: F/V Natalie Felicia, LLC, West Creek, NJ. More information available from US FCC via Universal Licensing System and Coast Guard Vessel Documentation Center.

Last reported at 2018-Jan-22 16:40 UTC. Time now 2018-Jan-23 23:52 UTC.
Position N 39°51' W 074°03'.

Length 23 m.

Type: Fishing. MMSI: 367689520.

Date/timePositionNaut miles runAvg speedWind from/ knotsBaromVisibWave heightAir tempDewpointWater temp
2018-Jan-22 16:40N 39°51' W 074°03'3 8.6
2018-Jan-22 16:22N 39°48' W 074°04'2 5.5
2018-Jan-22 15:56N 39°46' W 074°06'1 0.3
2018-Jan-22 14:06N 39°46' W 074°07'0 0.0
2018-Jan-22 13:45N 39°46' W 074°07'0 0.0
2018-Jan-22 13:21N 39°46' W 074°07'0 0.0
2018-Jan-22 12:54N 39°46' W 074°07'0 0.0
2018-Jan-22 11:42N 39°46' W 074°07'0 0.0
2018-Jan-22 10:27N 39°46' W 074°07'0 0.0
2018-Jan-22 09:12N 39°46' W 074°07'0 0.0
2018-Jan-22 09:00N 39°46' W 074°07'0 0.0
2018-Jan-22 08:12N 39°46' W 074°07'0 0.0
2018-Jan-22 07:51N 39°46' W 074°07'0 0.0
2018-Jan-22 07:24N 39°46' W 074°07'0 0.0
2018-Jan-22 06:18N 39°46' W 074°07'0 0.0
2018-Jan-22 05:48N 39°46' W 074°07'0 0.0
2018-Jan-22 05:30N 39°46' W 074°07'0 0.0
2018-Jan-22 05:00N 39°46' W 074°07'0 0.0
2018-Jan-22 03:21N 39°46' W 074°07'0 0.0
2018-Jan-22 03:00N 39°46' W 074°07'0 0.0
2018-Jan-22 02:24N 39°46' W 074°07'0 0.0
2018-Jan-22 01:57N 39°46' W 074°07'0 0.0
2018-Jan-22 00:03N 39°46' W 074°07'0 0.0
2018-Jan-21 23:33N 39°46' W 074°07'0 1.2
2018-Jan-21 23:30N 39°46' W 074°07'4 6.5
2018-Jan-21 22:58N 39°46' W 074°02'3 0.1
2018-Jan-20 19:16N 39°45' W 073°59'2 8.1
2018-Jan-20 19:00N 39°45' W 074°02'4 7.2
2018-Jan-20 18:28N 39°46' W 074°07'0 0.1
2018-Jan-20 17:46N 39°46' W 074°07'0 0.0
2018-Jan-20 17:13N 39°46' W 074°07'0 0.0
2018-Jan-20 15:16N 39°46' W 074°07'0 0.0
2018-Jan-20 14:43N 39°46' W 074°07'0 0.3
2018-Jan-20 13:43N 39°46' W 074°06'2 6.1
2018-Jan-20 13:27N 39°46' W 074°04'  
Track history (hours):
 
Tides and Currents Weather Stations Pressure Air Temp Water Temp Dewpoint Dewpoint Depression Visibility Wind Speed Wind Dir Waves Ship Positions

Rachel Hailey

Owner: F/V Natalie Felicia, LLC, West Creek, NJ. More information available from US FCC via Universal Licensing System and Coast Guard Vessel Documentation Center.

Last reported at 2018-Jan-22 16:40 UTC. Time now 2018-Jan-23 23:52 UTC.
Position N 39°51' W 074°03'.

Length 23 m.

Type: Fishing. MMSI: 367689520.

Date/timePositionNaut miles runAvg speedWind from/ knotsBaromVisibWave heightAir tempDewpointWater temp
2018-Jan-22 16:40N 39°51' W 074°03'3 8.6
2018-Jan-22 16:22N 39°48' W 074°04'2 5.5
2018-Jan-22 15:56N 39°46' W 074°06'1 0.3
2018-Jan-22 14:06N 39°46' W 074°07'0 0.0
2018-Jan-22 13:45N 39°46' W 074°07'0 0.0
2018-Jan-22 13:21N 39°46' W 074°07'0 0.0
2018-Jan-22 12:54N 39°46' W 074°07'0 0.0
2018-Jan-22 11:42N 39°46' W 074°07'0 0.0
2018-Jan-22 10:27N 39°46' W 074°07'0 0.0
2018-Jan-22 09:12N 39°46' W 074°07'0 0.0
2018-Jan-22 09:00N 39°46' W 074°07'0 0.0
2018-Jan-22 08:12N 39°46' W 074°07'0 0.0
2018-Jan-22 07:51N 39°46' W 074°07'0 0.0
2018-Jan-22 07:24N 39°46' W 074°07'0 0.0
2018-Jan-22 06:18N 39°46' W 074°07'0 0.0
2018-Jan-22 05:48N 39°46' W 074°07'0 0.0
2018-Jan-22 05:30N 39°46' W 074°07'0 0.0
2018-Jan-22 05:00N 39°46' W 074°07'0 0.0
2018-Jan-22 03:21N 39°46' W 074°07'0 0.0
2018-Jan-22 03:00N 39°46' W 074°07'0 0.0
2018-Jan-22 02:24N 39°46' W 074°07'0 0.0
2018-Jan-22 01:57N 39°46' W 074°07'0 0.0
2018-Jan-22 00:03N 39°46' W 074°07'0 0.0
2018-Jan-21 23:33N 39°46' W 074°07'0 1.2
2018-Jan-21 23:30N 39°46' W 074°07'4 6.5
2018-Jan-21 22:58N 39°46' W 074°02'3 0.1
2018-Jan-20 19:16N 39°45' W 073°59'2 8.1
2018-Jan-20 19:00N 39°45' W 074°02'4 7.2
2018-Jan-20 18:28N 39°46' W 074°07'0 0.1
2018-Jan-20 17:46N 39°46' W 074°07'0 0.0
2018-Jan-20 17:13N 39°46' W 074°07'0 0.0
2018-Jan-20 15:16N 39°46' W 074°07'0 0.0
2018-Jan-20 14:43N 39°46' W 074°07'0 0.3
2018-Jan-20 13:43N 39°46' W 074°06'2 6.1
2018-Jan-20 13:27N 39°46' W 074°04'  

Dump ship's entire track history